Halfmoon, New York
Current Conditions -  °F | °C
As of 6:51 PM on Sunday 25 Jan 2015 (Local Time) from KALB Reporting Station
Broken Clouds Broken Clouds  
Wind Chill:   Ceiling: 25000
Heat Index: 19°   Visibility: 10mi
Dew Point:   Wind: 8mph
Humidity: 47%   Direction: 310°NW
Pressure: 29.97"   Gusts: NA
Location:  42.8536°N, 73.7851°W
Report Text: KALB 252351Z 31007KT 10SM FEW200 BKN250 M07/M17 A2997 RMK AO2 SLP153 4/001 T10721167 11028 21072 53031
Loading
Personal Weather Stations






























Interactive Weather Map New forecast layout! Learn more

10-Day Weather Forecast

Advertisements
Track Severe Weather on mobile